sensor_id;sensor_type;location;lat;lon;timestamp;P1;durP1;ratioP1;P2;durP2;ratioP2
21806;SDS011;11065;50.786;7.840;2023-04-25T00:02:04;5.27;;;2.10;;
21806;SDS011;11065;50.786;7.840;2023-04-25T00:04:33;4.73;;;2.00;;
21806;SDS011;11065;50.786;7.840;2023-04-25T00:07:01;3.13;;;1.70;;
21806;SDS011;11065;50.786;7.840;2023-04-25T00:09:29;3.57;;;2.30;;
21806;SDS011;11065;50.786;7.840;2023-04-25T00:11:57;5.00;;;2.20;;
21806;SDS011;11065;50.786;7.840;2023-04-25T00:14:27;5.07;;;2.00;;
21806;SDS011;11065;50.786;7.840;2023-04-25T00:16:55;5.23;;;2.37;;
21806;SDS011;11065;50.786;7.840;2023-04-25T00:19:23;4.10;;;1.97;;
21806;SDS011;11065;50.786;7.840;2023-04-25T00:21:51;4.90;;;1.67;;
21806;SDS011;11065;50.786;7.840;2023-04-25T00:24:19;6.00;;;2.27;;
21806;SDS011;11065;50.786;7.840;2023-04-25T00:26:47;4.43;;;2.17;;
21806;SDS011;11065;50.786;7.840;2023-04-25T00:29:15;5.90;;;2.73;;
21806;SDS011;11065;50.786;7.840;2023-04-25T00:31:45;5.47;;;1.97;;
21806;SDS011;11065;50.786;7.840;2023-04-25T00:34:13;4.70;;;1.93;;
21806;SDS011;11065;50.786;7.840;2023-04-25T00:36:41;7.30;;;2.30;;
21806;SDS011;11065;50.786;7.840;2023-04-25T00:39:09;6.17;;;2.20;;
21806;SDS011;11065;50.786;7.840;2023-04-25T00:41:37;6.57;;;2.27;;
21806;SDS011;11065;50.786;7.840;2023-04-25T00:44:08;4.90;;;2.30;;
21806;SDS011;11065;50.786;7.840;2023-04-25T00:46:37;4.83;;;1.97;;
21806;SDS011;11065;50.786;7.840;2023-04-25T00:49:07;3.03;;;1.90;;
21806;SDS011;11065;50.786;7.840;2023-04-25T00:51:41;3.57;;;2.07;;
21806;SDS011;11065;50.786;7.840;2023-04-25T00:54:10;3.43;;;2.00;;
21806;SDS011;11065;50.786;7.840;2023-04-25T00:56:39;3.97;;;2.03;;
21806;SDS011;11065;50.786;7.840;2023-04-25T00:59:08;4.33;;;2.27;;
21806;SDS011;11065;50.786;7.840;2023-04-25T01:01:38;4.03;;;1.80;;
21806;SDS011;11065;50.786;7.840;2023-04-25T01:04:08;3.40;;;1.80;;
21806;SDS011;11065;50.786;7.840;2023-04-25T01:06:36;3.70;;;2.10;;
21806;SDS011;11065;50.786;7.840;2023-04-25T01:09:04;6.67;;;2.50;;
21806;SDS011;11065;50.786;7.840;2023-04-25T01:11:33;3.73;;;1.97;;
21806;SDS011;11065;50.786;7.840;2023-04-25T01:14:01;3.93;;;1.90;;
21806;SDS011;11065;50.786;7.840;2023-04-25T01:16:29;6.03;;;2.40;;
21806;SDS011;11065;50.786;7.840;2023-04-25T01:18:57;5.10;;;1.97;;
21806;SDS011;11065;50.786;7.840;2023-04-25T01:21:27;6.87;;;2.20;;
21806;SDS011;11065;50.786;7.840;2023-04-25T01:23:57;7.10;;;2.37;;
21806;SDS011;11065;50.786;7.840;2023-04-25T01:26:25;5.10;;;2.23;;
21806;SDS011;11065;50.786;7.840;2023-04-25T01:28:54;4.37;;;2.20;;
21806;SDS011;11065;50.786;7.840;2023-04-25T01:31:22;7.23;;;2.57;;
21806;SDS011;11065;50.786;7.840;2023-04-25T01:33:52;3.93;;;1.70;;
21806;SDS011;11065;50.786;7.840;2023-04-25T01:36:20;5.77;;;1.90;;
21806;SDS011;11065;50.786;7.840;2023-04-25T01:38:50;5.77;;;2.37;;
21806;SDS011;11065;50.786;7.840;2023-04-25T01:41:18;4.77;;;2.47;;
21806;SDS011;11065;50.786;7.840;2023-04-25T01:43:49;5.93;;;2.43;;
21806;SDS011;11065;50.786;7.840;2023-04-25T01:46:17;4.73;;;2.20;;
21806;SDS011;11065;50.786;7.840;2023-04-25T01:48:46;6.47;;;2.67;;
21806;SDS011;11065;50.786;7.840;2023-04-25T01:51:14;6.03;;;2.63;;
21806;SDS011;11065;50.786;7.840;2023-04-25T01:53:42;4.77;;;1.97;;
21806;SDS011;11065;50.786;7.840;2023-04-25T01:56:13;6.13;;;2.50;;
21806;SDS011;11065;50.786;7.840;2023-04-25T01:58:41;4.00;;;2.33;;
21806;SDS011;11065;50.786;7.840;2023-04-25T02:01:18;5.70;;;2.37;;
21806;SDS011;11065;50.786;7.840;2023-04-25T02:04:00;4.87;;;2.23;;
21806;SDS011;11065;50.786;7.840;2023-04-25T02:06:33;4.27;;;2.50;;
21806;SDS011;11065;50.786;7.840;2023-04-25T02:09:01;3.37;;;2.10;;
21806;SDS011;11065;50.786;7.840;2023-04-25T02:11:32;6.07;;;2.20;;
21806;SDS011;11065;50.786;7.840;2023-04-25T02:14:23;3.93;;;2.00;;
21806;SDS011;11065;50.786;7.840;2023-04-25T02:17:01;3.50;;;2.17;;
21806;SDS011;11065;50.786;7.840;2023-04-25T02:19:30;5.13;;;2.33;;
21806;SDS011;11065;50.786;7.840;2023-04-25T02:21:58;5.30;;;2.20;;
21806;SDS011;11065;50.786;7.840;2023-04-25T02:24:27;4.20;;;2.30;;
21806;SDS011;11065;50.786;7.840;2023-04-25T02:26:57;4.53;;;2.20;;
21806;SDS011;11065;50.786;7.840;2023-04-25T02:29:25;6.13;;;2.80;;
21806;SDS011;11065;50.786;7.840;2023-04-25T02:31:53;3.90;;;2.30;;
21806;SDS011;11065;50.786;7.840;2023-04-25T02:34:21;7.47;;;2.70;;
21806;SDS011;11065;50.786;7.840;2023-04-25T02:36:49;5.33;;;2.27;;
21806;SDS011;11065;50.786;7.840;2023-04-25T02:39:17;5.50;;;2.63;;
21806;SDS011;11065;50.786;7.840;2023-04-25T02:41:46;7.10;;;2.90;;
21806;SDS011;11065;50.786;7.840;2023-04-25T02:44:15;5.03;;;2.50;;
21806;SDS011;11065;50.786;7.840;2023-04-25T02:46:44;4.57;;;3.13;;
21806;SDS011;11065;50.786;7.840;2023-04-25T02:49:12;4.37;;;2.40;;
21806;SDS011;11065;50.786;7.840;2023-04-25T02:51:40;5.10;;;2.70;;
21806;SDS011;11065;50.786;7.840;2023-04-25T02:54:08;5.70;;;2.90;;
21806;SDS011;11065;50.786;7.840;2023-04-25T02:56:40;9.83;;;3.53;;
21806;SDS011;11065;50.786;7.840;2023-04-25T02:59:13;10.30;;;3.83;;
21806;SDS011;11065;50.786;7.840;2023-04-25T03:01:42;8.90;;;3.73;;
21806;SDS011;11065;50.786;7.840;2023-04-25T03:04:11;9.70;;;4.10;;
21806;SDS011;11065;50.786;7.840;2023-04-25T03:06:40;6.93;;;3.83;;
21806;SDS011;11065;50.786;7.840;2023-04-25T03:09:08;8.53;;;3.90;;
21806;SDS011;11065;50.786;7.840;2023-04-25T03:11:36;6.30;;;3.30;;
21806;SDS011;11065;50.786;7.840;2023-04-25T03:14:06;7.37;;;2.70;;
21806;SDS011;11065;50.786;7.840;2023-04-25T03:16:34;5.47;;;3.17;;
21806;SDS011;11065;50.786;7.840;2023-04-25T03:19:03;5.83;;;3.20;;
21806;SDS011;11065;50.786;7.840;2023-04-25T03:21:32;5.97;;;3.03;;
21806;SDS011;11065;50.786;7.840;2023-04-25T03:24:02;5.40;;;2.67;;
21806;SDS011;11065;50.786;7.840;2023-04-25T03:26:31;4.77;;;2.70;;
21806;SDS011;11065;50.786;7.840;2023-04-25T03:28:59;4.50;;;2.70;;
21806;SDS011;11065;50.786;7.840;2023-04-25T03:31:27;7.87;;;3.10;;
21806;SDS011;11065;50.786;7.840;2023-04-25T03:33:57;6.47;;;2.97;;
21806;SDS011;11065;50.786;7.840;2023-04-25T03:36:26;9.00;;;3.57;;
21806;SDS011;11065;50.786;7.840;2023-04-25T03:38:54;6.77;;;3.10;;
21806;SDS011;11065;50.786;7.840;2023-04-25T03:41:22;6.53;;;2.90;;
21806;SDS011;11065;50.786;7.840;2023-04-25T03:43:55;5.00;;;2.60;;
21806;SDS011;11065;50.786;7.840;2023-04-25T03:46:23;5.10;;;2.83;;
21806;SDS011;11065;50.786;7.840;2023-04-25T03:48:51;5.93;;;2.83;;
21806;SDS011;11065;50.786;7.840;2023-04-25T03:51:23;5.87;;;2.80;;
21806;SDS011;11065;50.786;7.840;2023-04-25T03:53:53;8.23;;;3.00;;
21806;SDS011;11065;50.786;7.840;2023-04-25T03:56:30;5.00;;;2.73;;
21806;SDS011;11065;50.786;7.840;2023-04-25T03:59:12;4.40;;;2.43;;
21806;SDS011;11065;50.786;7.840;2023-04-25T04:01:40;6.50;;;3.07;;
21806;SDS011;11065;50.786;7.840;2023-04-25T04:04:08;7.47;;;3.87;;
21806;SDS011;11065;50.786;7.840;2023-04-25T04:06:36;8.10;;;3.43;;
21806;SDS011;11065;50.786;7.840;2023-04-25T04:09:13;7.40;;;3.90;;
21806;SDS011;11065;50.786;7.840;2023-04-25T04:11:42;6.63;;;3.73;;
21806;SDS011;11065;50.786;7.840;2023-04-25T04:14:11;5.60;;;3.20;;
21806;SDS011;11065;50.786;7.840;2023-04-25T04:16:43;6.43;;;3.87;;
21806;SDS011;11065;50.786;7.840;2023-04-25T04:19:11;6.57;;;4.03;;
21806;SDS011;11065;50.786;7.840;2023-04-25T04:21:44;7.53;;;3.70;;
21806;SDS011;11065;50.786;7.840;2023-04-25T04:24:12;6.23;;;3.67;;
21806;SDS011;11065;50.786;7.840;2023-04-25T04:26:51;8.07;;;3.90;;
21806;SDS011;11065;50.786;7.840;2023-04-25T04:29:28;6.23;;;3.27;;
21806;SDS011;11065;50.786;7.840;2023-04-25T04:32:07;6.03;;;3.10;;
21806;SDS011;11065;50.786;7.840;2023-04-25T04:34:36;7.97;;;3.50;;
21806;SDS011;11065;50.786;7.840;2023-04-25T04:37:05;8.07;;;3.77;;
21806;SDS011;11065;50.786;7.840;2023-04-25T04:39:36;7.90;;;3.83;;
21806;SDS011;11065;50.786;7.840;2023-04-25T04:42:11;5.83;;;3.80;;
21806;SDS011;11065;50.786;7.840;2023-04-25T04:44:52;7.30;;;3.50;;
21806;SDS011;11065;50.786;7.840;2023-04-25T04:47:34;7.20;;;3.50;;
21806;SDS011;11065;50.786;7.840;2023-04-25T04:50:32;7.03;;;3.37;;
21806;SDS011;11065;50.786;7.840;2023-04-25T04:53:24;7.70;;;3.43;;
21806;SDS011;11065;50.786;7.840;2023-04-25T04:56:09;7.60;;;3.50;;
21806;SDS011;11065;50.786;7.840;2023-04-25T04:59:12;5.93;;;3.17;;
21806;SDS011;11065;50.786;7.840;2023-04-25T05:02:03;6.60;;;3.53;;
21806;SDS011;11065;50.786;7.840;2023-04-25T05:04:51;6.80;;;3.67;;
21806;SDS011;11065;50.786;7.840;2023-04-25T05:07:48;6.20;;;3.40;;
21806;SDS011;11065;50.786;7.840;2023-04-25T05:10:30;6.27;;;3.33;;
21806;SDS011;11065;50.786;7.840;2023-04-25T05:13:07;7.93;;;3.97;;
21806;SDS011;11065;50.786;7.840;2023-04-25T05:15:53;7.40;;;3.70;;
21806;SDS011;11065;50.786;7.840;2023-04-25T05:18:33;11.27;;;4.93;;
21806;SDS011;11065;50.786;7.840;2023-04-25T05:21:24;9.83;;;4.30;;
21806;SDS011;11065;50.786;7.840;2023-04-25T05:24:20;8.80;;;4.47;;
21806;SDS011;11065;50.786;7.840;2023-04-25T05:27:08;6.43;;;3.83;;
21806;SDS011;11065;50.786;7.840;2023-04-25T05:29:56;6.87;;;3.20;;
21806;SDS011;11065;50.786;7.840;2023-04-25T05:32:33;9.57;;;3.67;;
21806;SDS011;11065;50.786;7.840;2023-04-25T05:35:02;5.60;;;3.60;;
21806;SDS011;11065;50.786;7.840;2023-04-25T05:37:36;8.00;;;3.50;;
21806;SDS011;11065;50.786;7.840;2023-04-25T05:40:09;8.33;;;4.23;;
21806;SDS011;11065;50.786;7.840;2023-04-25T05:42:43;7.77;;;3.63;;
21806;SDS011;11065;50.786;7.840;2023-04-25T05:45:26;4.97;;;3.23;;
21806;SDS011;11065;50.786;7.840;2023-04-25T05:48:03;7.37;;;3.97;;
21806;SDS011;11065;50.786;7.840;2023-04-25T05:50:57;6.67;;;3.33;;
21806;SDS011;11065;50.786;7.840;2023-04-25T05:53:37;6.20;;;3.20;;
21806;SDS011;11065;50.786;7.840;2023-04-25T05:56:06;8.43;;;3.63;;
21806;SDS011;11065;50.786;7.840;2023-04-25T05:58:34;8.37;;;4.03;;
21806;SDS011;11065;50.786;7.840;2023-04-25T06:01:03;7.87;;;3.43;;
21806;SDS011;11065;50.786;7.840;2023-04-25T06:03:32;9.13;;;3.83;;
21806;SDS011;11065;50.786;7.840;2023-04-25T06:06:00;9.00;;;3.63;;
21806;SDS011;11065;50.786;7.840;2023-04-25T06:08:29;10.43;;;3.93;;
21806;SDS011;11065;50.786;7.840;2023-04-25T06:10:57;6.03;;;3.63;;
21806;SDS011;11065;50.786;7.840;2023-04-25T06:13:25;6.77;;;3.70;;
21806;SDS011;11065;50.786;7.840;2023-04-25T06:15:54;6.43;;;3.30;;
21806;SDS011;11065;50.786;7.840;2023-04-25T06:18:24;9.97;;;4.30;;
21806;SDS011;11065;50.786;7.840;2023-04-25T06:20:51;6.83;;;3.53;;
21806;SDS011;11065;50.786;7.840;2023-04-25T06:23:21;6.47;;;3.57;;
21806;SDS011;11065;50.786;7.840;2023-04-25T06:25:52;5.97;;;3.50;;
21806;SDS011;11065;50.786;7.840;2023-04-25T06:28:21;7.70;;;3.10;;
21806;SDS011;11065;50.786;7.840;2023-04-25T06:30:50;6.90;;;4.03;;
21806;SDS011;11065;50.786;7.840;2023-04-25T06:33:19;9.07;;;4.17;;
21806;SDS011;11065;50.786;7.840;2023-04-25T06:35:49;6.90;;;4.10;;
21806;SDS011;11065;50.786;7.840;2023-04-25T06:38:22;7.53;;;4.10;;
21806;SDS011;11065;50.786;7.840;2023-04-25T06:40:51;7.13;;;3.87;;
21806;SDS011;11065;50.786;7.840;2023-04-25T06:43:19;8.37;;;4.20;;
21806;SDS011;11065;50.786;7.840;2023-04-25T06:46:07;7.93;;;4.03;;
21806;SDS011;11065;50.786;7.840;2023-04-25T06:48:41;9.70;;;5.10;;
21806;SDS011;11065;50.786;7.840;2023-04-25T06:51:11;7.60;;;4.33;;
21806;SDS011;11065;50.786;7.840;2023-04-25T06:53:41;7.37;;;4.33;;
21806;SDS011;11065;50.786;7.840;2023-04-25T06:56:16;8.40;;;4.10;;
21806;SDS011;11065;50.786;7.840;2023-04-25T06:58:52;5.57;;;3.63;;
21806;SDS011;11065;50.786;7.840;2023-04-25T07:01:28;7.13;;;4.10;;
21806;SDS011;11065;50.786;7.840;2023-04-25T07:03:58;8.43;;;4.20;;
21806;SDS011;11065;50.786;7.840;2023-04-25T07:06:29;7.20;;;4.23;;
21806;SDS011;11065;50.786;7.840;2023-04-25T07:08:57;7.80;;;4.37;;
21806;SDS011;11065;50.786;7.840;2023-04-25T07:11:25;7.43;;;4.53;;
21806;SDS011;11065;50.786;7.840;2023-04-25T07:13:55;10.10;;;4.43;;
21806;SDS011;11065;50.786;7.840;2023-04-25T07:16:23;10.37;;;4.90;;
21806;SDS011;11065;50.786;7.840;2023-04-25T07:18:52;7.90;;;4.97;;
21806;SDS011;11065;50.786;7.840;2023-04-25T07:21:20;8.50;;;4.77;;
21806;SDS011;11065;50.786;7.840;2023-04-25T07:23:51;7.23;;;4.93;;
21806;SDS011;11065;50.786;7.840;2023-04-25T07:26:25;8.27;;;4.23;;
21806;SDS011;11065;50.786;7.840;2023-04-25T07:29:14;8.13;;;4.83;;
21806;SDS011;11065;50.786;7.840;2023-04-25T07:31:42;9.77;;;4.23;;
21806;SDS011;11065;50.786;7.840;2023-04-25T07:34:10;7.50;;;4.43;;
21806;SDS011;11065;50.786;7.840;2023-04-25T07:36:39;9.00;;;4.43;;
21806;SDS011;11065;50.786;7.840;2023-04-25T07:39:09;8.57;;;4.40;;
21806;SDS011;11065;50.786;7.840;2023-04-25T07:41:37;9.30;;;4.43;;
21806;SDS011;11065;50.786;7.840;2023-04-25T07:44:07;7.13;;;4.07;;
21806;SDS011;11065;50.786;7.840;2023-04-25T07:46:35;7.80;;;3.23;;
21806;SDS011;11065;50.786;7.840;2023-04-25T07:49:05;7.70;;;2.80;;
21806;SDS011;11065;50.786;7.840;2023-04-25T07:51:33;5.20;;;2.23;;
21806;SDS011;11065;50.786;7.840;2023-04-25T07:54:06;6.93;;;2.30;;
21806;SDS011;11065;50.786;7.840;2023-04-25T07:56:42;5.70;;;2.43;;
21806;SDS011;11065;50.786;7.840;2023-04-25T07:59:20;5.60;;;2.70;;
21806;SDS011;11065;50.786;7.840;2023-04-25T08:01:48;5.70;;;2.10;;
21806;SDS011;11065;50.786;7.840;2023-04-25T08:04:18;5.03;;;2.30;;
21806;SDS011;11065;50.786;7.840;2023-04-25T08:06:54;5.10;;;2.27;;
21806;SDS011;11065;50.786;7.840;2023-04-25T08:09:27;5.17;;;2.10;;
21806;SDS011;11065;50.786;7.840;2023-04-25T08:11:56;5.23;;;2.47;;
21806;SDS011;11065;50.786;7.840;2023-04-25T08:14:29;6.50;;;2.77;;
21806;SDS011;11065;50.786;7.840;2023-04-25T08:17:03;6.03;;;2.80;;
21806;SDS011;11065;50.786;7.840;2023-04-25T08:19:34;6.27;;;2.53;;
21806;SDS011;11065;50.786;7.840;2023-04-25T08:22:03;7.53;;;3.63;;
21806;SDS011;11065;50.786;7.840;2023-04-25T08:24:43;9.17;;;3.97;;
21806;SDS011;11065;50.786;7.840;2023-04-25T08:27:11;3.73;;;2.03;;
21806;SDS011;11065;50.786;7.840;2023-04-25T08:29:40;7.93;;;3.30;;
21806;SDS011;11065;50.786;7.840;2023-04-25T08:32:08;5.10;;;2.60;;
21806;SDS011;11065;50.786;7.840;2023-04-25T08:34:42;6.20;;;2.73;;
21806;SDS011;11065;50.786;7.840;2023-04-25T08:37:10;5.90;;;2.77;;
21806;SDS011;11065;50.786;7.840;2023-04-25T08:40:08;5.80;;;2.40;;
21806;SDS011;11065;50.786;7.840;2023-04-25T08:42:50;6.27;;;3.00;;
21806;SDS011;11065;50.786;7.840;2023-04-25T08:45:19;5.57;;;2.30;;
21806;SDS011;11065;50.786;7.840;2023-04-25T08:47:48;5.37;;;2.50;;
21806;SDS011;11065;50.786;7.840;2023-04-25T08:50:20;6.47;;;3.03;;
21806;SDS011;11065;50.786;7.840;2023-04-25T08:52:51;8.47;;;2.70;;
21806;SDS011;11065;50.786;7.840;2023-04-25T08:55:23;5.80;;;2.00;;
21806;SDS011;11065;50.786;7.840;2023-04-25T08:57:55;6.03;;;2.13;;
21806;SDS011;11065;50.786;7.840;2023-04-25T09:00:25;13.83;;;3.53;;
21806;SDS011;11065;50.786;7.840;2023-04-25T09:02:55;29.30;;;7.80;;
21806;SDS011;11065;50.786;7.840;2023-04-25T09:05:28;14.00;;;4.30;;
21806;SDS011;11065;50.786;7.840;2023-04-25T09:07:56;12.43;;;3.63;;
21806;SDS011;11065;50.786;7.840;2023-04-25T09:10:26;10.93;;;3.97;;
21806;SDS011;11065;50.786;7.840;2023-04-25T09:13:03;20.60;;;5.50;;
21806;SDS011;11065;50.786;7.840;2023-04-25T09:15:48;32.93;;;9.50;;
21806;SDS011;11065;50.786;7.840;2023-04-25T09:18:31;8.40;;;3.70;;
21806;SDS011;11065;50.786;7.840;2023-04-25T09:21:04;5.43;;;2.80;;
21806;SDS011;11065;50.786;7.840;2023-04-25T09:23:44;5.50;;;2.20;;
21806;SDS011;11065;50.786;7.840;2023-04-25T09:26:15;6.40;;;2.50;;
21806;SDS011;11065;50.786;7.840;2023-04-25T09:28:44;5.23;;;2.20;;
21806;SDS011;11065;50.786;7.840;2023-04-25T09:31:21;5.07;;;2.00;;
21806;SDS011;11065;50.786;7.840;2023-04-25T09:33:58;4.87;;;2.27;;
21806;SDS011;11065;50.786;7.840;2023-04-25T09:36:32;8.00;;;2.20;;
21806;SDS011;11065;50.786;7.840;2023-04-25T09:39:16;7.93;;;2.60;;
21806;SDS011;11065;50.786;7.840;2023-04-25T09:42:00;5.23;;;2.33;;
21806;SDS011;11065;50.786;7.840;2023-04-25T09:44:30;6.33;;;2.30;;
21806;SDS011;11065;50.786;7.840;2023-04-25T09:46:58;6.37;;;2.47;;
21806;SDS011;11065;50.786;7.840;2023-04-25T09:49:28;8.00;;;2.67;;
21806;SDS011;11065;50.786;7.840;2023-04-25T09:52:03;4.87;;;1.93;;
21806;SDS011;11065;50.786;7.840;2023-04-25T09:54:38;4.80;;;2.00;;
21806;SDS011;11065;50.786;7.840;2023-04-25T09:57:16;5.83;;;1.83;;
21806;SDS011;11065;50.786;7.840;2023-04-25T09:59:46;7.53;;;2.70;;
21806;SDS011;11065;50.786;7.840;2023-04-25T10:02:16;4.43;;;1.80;;
21806;SDS011;11065;50.786;7.840;2023-04-25T10:04:48;4.13;;;1.80;;
21806;SDS011;11065;50.786;7.840;2023-04-25T10:07:26;8.27;;;2.20;;
21806;SDS011;11065;50.786;7.840;2023-04-25T10:09:59;7.00;;;2.10;;
21806;SDS011;11065;50.786;7.840;2023-04-25T10:12:30;6.53;;;2.00;;
21806;SDS011;11065;50.786;7.840;2023-04-25T10:15:00;5.27;;;1.73;;
21806;SDS011;11065;50.786;7.840;2023-04-25T10:17:30;5.63;;;1.70;;
21806;SDS011;11065;50.786;7.840;2023-04-25T10:20:00;5.80;;;2.33;;
21806;SDS011;11065;50.786;7.840;2023-04-25T10:22:32;5.63;;;1.97;;
21806;SDS011;11065;50.786;7.840;2023-04-25T10:25:03;7.03;;;2.20;;
21806;SDS011;11065;50.786;7.840;2023-04-25T10:27:34;8.00;;;2.40;;
21806;SDS011;11065;50.786;7.840;2023-04-25T10:30:03;5.73;;;2.30;;
21806;SDS011;11065;50.786;7.840;2023-04-25T10:32:32;4.10;;;2.40;;
21806;SDS011;11065;50.786;7.840;2023-04-25T10:35:10;4.97;;;2.30;;
21806;SDS011;11065;50.786;7.840;2023-04-25T10:40:26;5.17;;;2.47;;
21806;SDS011;11065;50.786;7.840;2023-04-25T10:42:55;5.80;;;2.43;;
21806;SDS011;11065;50.786;7.840;2023-04-25T10:46:14;6.07;;;2.33;;
21806;SDS011;11065;50.786;7.840;2023-04-25T10:48:44;4.77;;;2.20;;
21806;SDS011;11065;50.786;7.840;2023-04-25T10:51:17;6.43;;;2.33;;
21806;SDS011;11065;50.786;7.840;2023-04-25T10:53:47;5.70;;;2.30;;
21806;SDS011;11065;50.786;7.840;2023-04-25T10:56:30;4.33;;;1.53;;
21806;SDS011;11065;50.786;7.840;2023-04-25T10:59:10;5.80;;;1.83;;
21806;SDS011;11065;50.786;7.840;2023-04-25T11:01:40;4.70;;;1.67;;
21806;SDS011;11065;50.786;7.840;2023-04-25T11:04:20;5.43;;;2.03;;
21806;SDS011;11065;50.786;7.840;2023-04-25T11:06:59;4.73;;;1.70;;
21806;SDS011;11065;50.786;7.840;2023-04-25T11:09:35;4.03;;;1.80;;
21806;SDS011;11065;50.786;7.840;2023-04-25T11:12:07;5.67;;;1.83;;
21806;SDS011;11065;50.786;7.840;2023-04-25T11:14:39;6.40;;;1.90;;
21806;SDS011;11065;50.786;7.840;2023-04-25T11:17:07;5.53;;;1.93;;
21806;SDS011;11065;50.786;7.840;2023-04-25T11:19:37;5.50;;;2.10;;
21806;SDS011;11065;50.786;7.840;2023-04-25T11:22:04;5.20;;;1.83;;
21806;SDS011;11065;50.786;7.840;2023-04-25T11:24:34;4.40;;;2.13;;
21806;SDS011;11065;50.786;7.840;2023-04-25T11:27:03;6.03;;;2.07;;
21806;SDS011;11065;50.786;7.840;2023-04-25T11:29:33;5.53;;;2.07;;
21806;SDS011;11065;50.786;7.840;2023-04-25T11:32:04;5.27;;;1.93;;
21806;SDS011;11065;50.786;7.840;2023-04-25T11:34:32;6.77;;;2.50;;
21806;SDS011;11065;50.786;7.840;2023-04-25T11:37:01;4.43;;;1.83;;
21806;SDS011;11065;50.786;7.840;2023-04-25T11:39:30;6.37;;;2.13;;
21806;SDS011;11065;50.786;7.840;2023-04-25T11:41:58;5.90;;;2.03;;
21806;SDS011;11065;50.786;7.840;2023-04-25T11:44:33;6.67;;;2.27;;
21806;SDS011;11065;50.786;7.840;2023-04-25T11:47:01;3.63;;;1.97;;
21806;SDS011;11065;50.786;7.840;2023-04-25T11:49:31;5.03;;;2.07;;
21806;SDS011;11065;50.786;7.840;2023-04-25T11:51:59;4.97;;;1.80;;
21806;SDS011;11065;50.786;7.840;2023-04-25T11:54:27;4.63;;;1.90;;
21806;SDS011;11065;50.786;7.840;2023-04-25T11:56:55;4.60;;;1.80;;
21806;SDS011;11065;50.786;7.840;2023-04-25T11:59:24;5.80;;;2.17;;
21806;SDS011;11065;50.786;7.840;2023-04-25T12:01:53;5.13;;;1.83;;
21806;SDS011;11065;50.786;7.840;2023-04-25T12:04:23;5.13;;;1.67;;
21806;SDS011;11065;50.786;7.840;2023-04-25T12:06:53;4.80;;;1.90;;
21806;SDS011;11065;50.786;7.840;2023-04-25T12:09:27;3.90;;;1.47;;
21806;SDS011;11065;50.786;7.840;2023-04-25T12:11:56;5.10;;;1.53;;
21806;SDS011;11065;50.786;7.840;2023-04-25T12:14:25;3.10;;;1.30;;
21806;SDS011;11065;50.786;7.840;2023-04-25T12:16:55;4.13;;;1.47;;
21806;SDS011;11065;50.786;7.840;2023-04-25T12:19:26;4.17;;;1.40;;
21806;SDS011;11065;50.786;7.840;2023-04-25T12:21:59;3.67;;;1.20;;
21806;SDS011;11065;50.786;7.840;2023-04-25T12:24:29;4.57;;;1.87;;
21806;SDS011;11065;50.786;7.840;2023-04-25T12:27:05;5.13;;;1.50;;
21806;SDS011;11065;50.786;7.840;2023-04-25T12:29:34;4.57;;;1.43;;
21806;SDS011;11065;50.786;7.840;2023-04-25T12:32:15;4.07;;;1.80;;
21806;SDS011;11065;50.786;7.840;2023-04-25T12:34:44;2.87;;;1.30;;
21806;SDS011;11065;50.786;7.840;2023-04-25T12:37:12;5.23;;;1.40;;
21806;SDS011;11065;50.786;7.840;2023-04-25T12:39:40;4.23;;;1.67;;
21806;SDS011;11065;50.786;7.840;2023-04-25T12:42:08;5.13;;;1.30;;
21806;SDS011;11065;50.786;7.840;2023-04-25T12:44:39;3.73;;;1.50;;
21806;SDS011;11065;50.786;7.840;2023-04-25T12:47:07;3.53;;;1.53;;
21806;SDS011;11065;50.786;7.840;2023-04-25T12:49:36;3.30;;;1.73;;
21806;SDS011;11065;50.786;7.840;2023-04-25T12:52:05;4.90;;;1.80;;
21806;SDS011;11065;50.786;7.840;2023-04-25T12:54:33;4.30;;;1.70;;
21806;SDS011;11065;50.786;7.840;2023-04-25T12:57:02;4.20;;;1.87;;
21806;SDS011;11065;50.786;7.840;2023-04-25T12:59:30;4.53;;;2.23;;
21806;SDS011;11065;50.786;7.840;2023-04-25T13:01:58;5.03;;;2.03;;
21806;SDS011;11065;50.786;7.840;2023-04-25T13:04:26;5.27;;;2.60;;
21806;SDS011;11065;50.786;7.840;2023-04-25T13:06:54;4.70;;;2.07;;
21806;SDS011;11065;50.786;7.840;2023-04-25T13:09:24;3.30;;;1.47;;
21806;SDS011;11065;50.786;7.840;2023-04-25T13:11:52;3.17;;;1.50;;
21806;SDS011;11065;50.786;7.840;2023-04-25T13:14:24;6.70;;;1.30;;
21806;SDS011;11065;50.786;7.840;2023-04-25T13:16:52;5.93;;;1.33;;
21806;SDS011;11065;50.786;7.840;2023-04-25T13:19:20;3.40;;;1.30;;
21806;SDS011;11065;50.786;7.840;2023-04-25T13:21:49;3.50;;;1.40;;
21806;SDS011;11065;50.786;7.840;2023-04-25T13:24:17;4.13;;;1.60;;
21806;SDS011;11065;50.786;7.840;2023-04-25T13:26:46;5.27;;;1.30;;
21806;SDS011;11065;50.786;7.840;2023-04-25T13:29:14;4.23;;;1.47;;
21806;SDS011;11065;50.786;7.840;2023-04-25T13:31:43;4.63;;;1.33;;
21806;SDS011;11065;50.786;7.840;2023-04-25T13:34:10;5.67;;;1.30;;
21806;SDS011;11065;50.786;7.840;2023-04-25T13:36:39;5.67;;;1.40;;
21806;SDS011;11065;50.786;7.840;2023-04-25T13:39:07;4.10;;;1.33;;
21806;SDS011;11065;50.786;7.840;2023-04-25T13:41:35;3.50;;;1.23;;
21806;SDS011;11065;50.786;7.840;2023-04-25T13:44:05;3.57;;;1.17;;
21806;SDS011;11065;50.786;7.840;2023-04-25T13:46:33;2.83;;;1.30;;
21806;SDS011;11065;50.786;7.840;2023-04-25T13:49:12;3.97;;;1.30;;
21806;SDS011;11065;50.786;7.840;2023-04-25T13:51:41;2.87;;;1.13;;
21806;SDS011;11065;50.786;7.840;2023-04-25T13:54:09;4.23;;;1.40;;
21806;SDS011;11065;50.786;7.840;2023-04-25T13:56:37;2.90;;;1.20;;
21806;SDS011;11065;50.786;7.840;2023-04-25T13:59:09;3.33;;;1.27;;
21806;SDS011;11065;50.786;7.840;2023-04-25T14:01:38;3.00;;;1.10;;
21806;SDS011;11065;50.786;7.840;2023-04-25T14:04:06;3.87;;;1.30;;
21806;SDS011;11065;50.786;7.840;2023-04-25T14:06:34;3.70;;;1.27;;
21806;SDS011;11065;50.786;7.840;2023-04-25T14:09:02;3.47;;;1.23;;
21806;SDS011;11065;50.786;7.840;2023-04-25T14:11:33;3.50;;;1.20;;
21806;SDS011;11065;50.786;7.840;2023-04-25T14:14:01;3.43;;;1.10;;
21806;SDS011;11065;50.786;7.840;2023-04-25T14:16:30;4.13;;;1.43;;
21806;SDS011;11065;50.786;7.840;2023-04-25T14:18:59;3.87;;;1.20;;
21806;SDS011;11065;50.786;7.840;2023-04-25T14:21:27;2.70;;;1.10;;
21806;SDS011;11065;50.786;7.840;2023-04-25T14:23:58;2.03;;;1.30;;
21806;SDS011;11065;50.786;7.840;2023-04-25T14:26:26;4.37;;;1.27;;
21806;SDS011;11065;50.786;7.840;2023-04-25T14:28:54;4.73;;;1.30;;
21806;SDS011;11065;50.786;7.840;2023-04-25T14:31:22;4.57;;;1.30;;
21806;SDS011;11065;50.786;7.840;2023-04-25T14:33:51;2.23;;;1.00;;
21806;SDS011;11065;50.786;7.840;2023-04-25T14:36:21;4.73;;;1.50;;
21806;SDS011;11065;50.786;7.840;2023-04-25T14:38:49;3.43;;;1.10;;
21806;SDS011;11065;50.786;7.840;2023-04-25T14:41:17;3.57;;;1.23;;
21806;SDS011;11065;50.786;7.840;2023-04-25T14:43:45;3.87;;;1.07;;
21806;SDS011;11065;50.786;7.840;2023-04-25T14:46:13;2.27;;;1.43;;
21806;SDS011;11065;50.786;7.840;2023-04-25T14:48:42;4.00;;;1.03;;
21806;SDS011;11065;50.786;7.840;2023-04-25T14:51:11;2.33;;;1.10;;
21806;SDS011;11065;50.786;7.840;2023-04-25T14:53:40;4.00;;;1.20;;
21806;SDS011;11065;50.786;7.840;2023-04-25T14:56:08;3.00;;;1.40;;
21806;SDS011;11065;50.786;7.840;2023-04-25T14:58:36;5.07;;;1.60;;
21806;SDS011;11065;50.786;7.840;2023-04-25T15:01:05;4.40;;;1.13;;
21806;SDS011;11065;50.786;7.840;2023-04-25T15:03:33;7.93;;;1.47;;
21806;SDS011;11065;50.786;7.840;2023-04-25T15:06:01;3.83;;;1.20;;
21806;SDS011;11065;50.786;7.840;2023-04-25T15:08:31;3.80;;;1.27;;
21806;SDS011;11065;50.786;7.840;2023-04-25T15:10:59;4.63;;;1.40;;
21806;SDS011;11065;50.786;7.840;2023-04-25T15:13:28;3.70;;;1.50;;
21806;SDS011;11065;50.786;7.840;2023-04-25T15:15:56;3.93;;;1.47;;
21806;SDS011;11065;50.786;7.840;2023-04-25T15:18:24;3.50;;;1.50;;